Map

Track Data

SID SEASON NUMBER BASIN SUBBASIN NAME ISO_TIME NATURE LAT LON WMO_WIND WMO_PRES WMO_AGENCY TRACK_TYPE DIST2LAND LANDFALL IFLAG USA_AGENCY USA_ATCF_ID USA_LAT USA_LON USA_RECORD USA_STATUS USA_WIND USA_PRES USA_SSHS USA_R34_NE USA_R34_SE USA_R34_SW USA_R34_NW USA_R50_NE USA_R50_SE USA_R50_SW USA_R50_NW USA_R64_NE USA_R64_SE USA_R64_SW USA_R64_NW USA_POCI USA_ROCI USA_RMW USA_EYE TOKYO_LAT TOKYO_LON TOKYO_GRADE TOKYO_WIND TOKYO_PRES TOKYO_R50_DIR TOKYO_R50_LONG TOKYO_R50_SHORT TOKYO_R30_DIR TOKYO_R30_LONG TOKYO_R30_SHORT TOKYO_LAND CMA_LAT CMA_LON CMA_CAT CMA_WIND CMA_PRES HKO_LAT HKO_LON HKO_CAT HKO_WIND HKO_PRES NEWDELHI_LAT NEWDELHI_LON NEWDELHI_GRADE NEWDELHI_WIND NEWDELHI_PRES NEWDELHI_CI NEWDELHI_DP NEWDELHI_POCI REUNION_LAT REUNION_LON REUNION_TYPE REUNION_WIND REUNION_PRES REUNION_TNUM REUNION_CI REUNION_RMW REUNION_R34_NE REUNION_R34_SE REUNION_R34_SW REUNION_R34_NW REUNION_R50_NE REUNION_R50_SE REUNION_R50_SW REUNION_R50_NW REUNION_R64_NE REUNION_R64_SE REUNION_R64_SW REUNION_R64_NW BOM_LAT BOM_LON BOM_TYPE BOM_WIND BOM_PRES BOM_TNUM BOM_CI BOM_RMW BOM_R34_NE BOM_R34_SE BOM_R34_SW BOM_R34_NW BOM_R50_NE BOM_R50_SE BOM_R50_SW BOM_R50_NW BOM_R64_NE BOM_R64_SE BOM_R64_SW BOM_R64_NW BOM_ROCI BOM_POCI BOM_EYE BOM_POS_METHOD BOM_PRES_METHOD NADI_LAT NADI_LON NADI_CAT NADI_WIND NADI_PRES WELLINGTON_LAT WELLINGTON_LON WELLINGTON_WIND WELLINGTON_PRES DS824_LAT DS824_LON DS824_STAGE DS824_WIND DS824_PRES TD9636_LAT TD9636_LON TD9636_STAGE TD9636_WIND TD9636_PRES TD9635_LAT TD9635_LON TD9635_WIND TD9635_PRES TD9635_ROCI NEUMANN_LAT NEUMANN_LON NEUMANN_CLASS NEUMANN_WIND NEUMANN_PRES MLC_LAT MLC_LON MLC_CLASS MLC_WIND MLC_PRES USA_GUST BOM_GUST BOM_GUST_PER REUNION_GUST REUNION_GUST_PER USA_SEAHGT USA_SEARAD_NE USA_SEARAD_SE USA_SEARAD_SW USA_SEARAD_NW STORM_SPEED STORM_DIR
1904277N16138 1904 38 WP MM NOT_NAMED 1904-10-02 16:00:00 NR 15.8000 138.100 main 1418 1393 __________O___ -1 15.8000 138.100 7 10 311
1904277N16138 1904 38 WP MM NOT_NAMED 1904-10-02 18:00:00 NR 16.0230 137.833 main 1393 1365 __________P___ -1 16.0230 137.833 7 10 312
1904277N16138 1904 38 WP MM NOT_NAMED 1904-10-02 21:00:00 NR 16.3735 137.438 main 1365 1346 __________P___ -1 16.3735 137.438 7 11 315
1904277N16138 1904 38 WP MM NOT_NAMED 1904-10-03 00:00:00 NR 16.7661 137.060 main 1350 1328 __________P___ -1 16.7661 137.060 7 11 321
1904277N16138 1904 38 WP MM NOT_NAMED 1904-10-03 03:00:00 NR 17.2268 136.709 main 1328 1323 __________P___ -1 17.2268 136.709 7 12 325
1904277N16138 1904 38 WP MM NOT_NAMED 1904-10-03 04:00:00 NR 17.4000 136.600 main 1327 1322 __________O___ -1 17.4000 136.600 7 13 332
1904277N16138 1904 38 WP MM NOT_NAMED 1904-10-03 06:00:00 NR 17.7786 136.397 main 1327 1323 __________P___ -1 17.7786 136.397 7 13 337
1904277N16138 1904 38 WP MM NOT_NAMED 1904-10-03 09:00:00 NR 18.4097 136.148 main 1331 1331 __________P___ -1 18.4097 136.148 7 14 344
1904277N16138 1904 38 WP MM NOT_NAMED 1904-10-03 12:00:00 NR 19.0863 135.996 main 1363 1359 __________P___ -1 19.0863 135.996 7 14 353
1904277N16138 1904 38 WP MM NOT_NAMED 1904-10-03 15:00:00 NR 19.7742 135.973 main 1359 1338 __________P___ -1 19.7742 135.973 7 14 0
1904277N16138 1904 38 WP MM NOT_NAMED 1904-10-03 16:00:00 NR 20.0000 136.000 main 1338 1301 __________O___ -1 20.0000 136.000 7 13 11
1904277N16138 1904 38 WP MM NOT_NAMED 1904-10-03 18:00:00 NR 20.3936 136.106 main 1301 1253 __________P___ -1 20.3936 136.106 7 13 21
1904277N16138 1904 38 WP MM NOT_NAMED 1904-10-03 21:00:00 NR 20.9771 136.391 main 1253 1212 __________P___ -1 20.9771 136.391 7 14 28
1904277N16138 1904 38 WP MM NOT_NAMED 1904-10-04 00:00:00 NR 21.5854 136.786 main 1212 1165 __________P___ -1 21.5854 136.786 7 15 32
1904277N16138 1904 38 WP MM NOT_NAMED 1904-10-04 03:00:00 NR 22.2561 137.243 main 1165 1157 __________P___ -1 22.2561 137.243 7 16 32
1904277N16138 1904 38 WP MM NOT_NAMED 1904-10-04 04:00:00 NR 22.5000 137.400 main 1157 1125 __________O___ -1 22.5000 137.400 7 18 29
1904277N16138 1904 38 WP MM NOT_NAMED 1904-10-04 06:00:00 NR 23.0326 137.715 main 1125 1071 __________P___ -1 23.0326 137.715 7 19 28
1904277N16138 1904 38 WP MM NOT_NAMED 1904-10-04 09:00:00 NR 23.9007 138.221 main 1071 1000 __________P___ -1 23.9007 138.221 7 20 27
1904277N16138 1904 38 WP MM NOT_NAMED 1904-10-04 12:00:00 NR 24.8259 138.723 main 1000 909 __________P___ -1 24.8259 138.723 7 21 25
1904277N16138 1904 38 WP MM NOT_NAMED 1904-10-04 15:00:00 NR 25.7802 139.172 main 909 892 __________P___ -1 25.7802 139.172 7 21 22
1904277N16138 1904 38 WP MM NOT_NAMED 1904-10-04 16:00:00 NR 26.1000 139.300 main 881 827 __________O___ -1 26.1000 139.300 7 20 18
1904277N16138 1904 38 WP MM NOT_NAMED 1904-10-04 18:00:00 NR 26.7376 139.518 main 827 741 __________P___ -1 26.7376 139.518 7 20 15
1904277N16138 1904 38 WP MM NOT_NAMED 1904-10-04 21:00:00 NR 27.6895 139.761 main 741 662 __________P___ -1 27.6895 139.761 7 19 11
1904277N16138 1904 38 WP MM NOT_NAMED 1904-10-05 00:00:00 NR 28.6380 139.932 main 662 570 __________P___ -1 28.6380 139.932 7 19 8
1904277N16138 1904 38 WP MM NOT_NAMED 1904-10-05 03:00:00 NR 29.5847 140.061 main 570 549 __________P___ -1 29.5847 140.061 7 19 7
1904277N16138 1904 38 WP MM NOT_NAMED 1904-10-05 04:00:00 NR 29.9000 140.100 main 538 __________O___ -1 29.9000 140.100 7 19 9

Digital Typhoon Data and Search

About IBTrACS Database

This database is a web-friendly format of International Best Track Archive for Climate Stewardship (IBTrACS), a global best track data archive curated by NOAA dating back to 1842.

Updated: 2021-10-27